Time;durP1;ratioP1;P1;durP2;ratioP2;P2;SDS_P1;SDS_P2;PMS_P1;PMS_P2;Temp;Humidity;BMP_temperature;BMP_pressure;BME280_temperature;BME280_humidity;BME280_pressure;Samples;Min_cycle;Max_cycle;Signal;HPM_P1;HPM_P2
2022/03/29 00:02:25;;;;;;;22.27;14.57;;;8.60;99.90;;;9.38;98.13;-20046.09;5011364;28;20258;-58
2022/03/29 00:04:53;;;;;;;21.27;14.17;;;8.60;99.90;;;9.32;98.69;-20044.06;5011241;28;20698;-57
2022/03/29 00:07:22;;;;;;;22.23;14.07;;;8.60;99.90;;;9.20;100.00;-20040.13;5010816;28;20234;-59
2022/03/29 00:09:49;;;;;;;19.20;13.47;;;8.50;99.90;;;8.93;100.00;-20030.72;5011159;28;20234;-58
2022/03/29 00:12:19;;;;;;;25.57;14.50;;;8.40;99.90;;;8.93;100.00;-20030.91;5010965;28;20222;-59
2022/03/29 00:14:47;;;;;;;21.03;13.40;;;8.30;99.90;;;9.12;100.00;-20037.22;5010896;28;20271;-60
2022/03/29 00:17:15;;;;;;;21.63;13.40;;;8.30;99.90;;;9.06;100.00;-20035.19;4991113;28;20223;-59
2022/03/29 00:19:43;;;;;;;21.93;13.83;;;8.30;99.90;;;9.02;100.00;-20033.97;4991225;28;20233;-61
2022/03/29 00:22:11;;;;;;;22.00;14.40;;;8.30;99.90;;;8.95;100.00;-20031.59;4990856;28;20238;-59
2022/03/29 00:24:39;;;;;;;21.17;14.47;;;8.20;99.90;;;8.78;100.00;-20025.63;4991501;28;20261;-60
2022/03/29 00:27:07;;;;;;;23.53;14.13;;;8.10;99.90;;;8.79;100.00;-20025.94;4990526;28;20204;-60
2022/03/29 00:29:37;;;;;;;20.73;13.83;;;8.00;99.90;;;8.81;100.00;-20026.63;4991860;28;20299;-60
2022/03/29 00:32:06;;;;;;;20.83;13.80;;;8.00;99.90;;;8.73;100.00;-20023.91;5009889;28;20230;-59
2022/03/29 00:34:36;;;;;;;20.20;14.23;;;8.00;99.90;;;8.77;100.00;-20025.25;5010838;28;20241;-59
2022/03/29 00:37:05;;;;;;;22.83;14.23;;;7.90;99.90;;;8.57;100.00;-20018.78;5010583;28;20229;-56
2022/03/29 00:39:33;;;;;;;22.47;14.67;;;7.90;99.90;;;8.50;100.00;-20016.22;5010680;28;20563;-58
2022/03/29 00:42:02;;;;;;;21.80;14.40;;;7.80;99.90;;;8.52;100.00;-20016.91;5010610;28;20286;-60
2022/03/29 00:44:32;;;;;;;22.03;14.57;;;7.80;99.90;;;8.60;100.00;-20019.81;5010928;28;20321;-57
2022/03/29 00:47:02;;;;;;;22.67;14.67;;;7.70;99.90;;;8.45;100.00;-20014.50;5010416;28;20317;-58
2022/03/29 00:49:30;;;;;;;20.80;13.83;;;7.70;99.90;;;8.25;100.00;-20007.84;5010590;28;20269;-56
2022/03/29 00:52:04;;;;;;;22.67;13.90;;;7.60;99.90;;;8.17;100.00;-20004.94;5010559;28;20301;-57
2022/03/29 00:54:36;;;;;;;23.73;14.57;;;7.50;99.90;;;8.20;100.00;-20005.97;5010661;28;20245;-57
2022/03/29 00:57:06;;;;;;;23.53;15.40;;;7.50;99.90;;;8.15;100.00;-20004.41;5010908;28;20187;-58
2022/03/29 00:59:34;;;;;;;21.50;14.40;;;7.40;99.90;;;7.90;100.00;-19995.88;5010977;28;20285;-59
2022/03/29 01:02:04;;;;;;;22.50;14.87;;;7.30;99.90;;;7.94;100.00;-19997.25;5010279;28;20250;-57
2022/03/29 01:04:32;;;;;;;22.80;14.83;;;7.30;99.90;;;8.00;100.00;-19999.28;5010216;28;20259;-59
2022/03/29 01:07:01;;;;;;;21.87;14.10;;;7.30;99.90;;;7.98;100.00;-19998.44;5010122;28;20333;-60
2022/03/29 01:09:33;;;;;;;22.20;13.77;;;7.20;99.90;;;7.92;100.00;-19996.38;5010289;28;20417;-59
2022/03/29 01:12:01;;;;;;;21.93;14.73;;;7.20;99.90;;;7.73;100.00;-19989.91;5010246;28;20710;-59
2022/03/29 01:14:31;;;;;;;23.67;15.20;;;7.20;99.90;;;7.68;100.00;-19988.19;5010931;28;20202;-60
2022/03/29 01:19:52;;;;;;;22.27;14.00;;;7.10;99.90;;;7.63;100.00;-19986.66;4990568;28;20238;-58
2022/03/29 01:22:22;;;;;;;22.53;15.37;;;7.10;99.90;;;7.69;100.00;-19988.69;4990412;28;20229;-59
2022/03/29 01:24:52;;;;;;;25.07;15.63;;;7.00;99.90;;;7.67;100.00;-19987.84;4990259;28;20230;-58
2022/03/29 01:27:22;;;;;;;22.50;15.23;;;7.00;99.90;;;7.79;100.00;-19992.13;5001557;28;20305;-59
2022/03/29 01:29:56;;;;;;;21.13;14.80;;;7.00;99.90;;;7.91;100.00;-19996.03;5010384;28;20191;-60
2022/03/29 01:32:28;;;;;;;23.37;14.87;;;7.10;99.90;;;7.98;100.00;-19998.44;5010332;28;20244;-60
2022/03/29 01:34:59;;;;;;;24.77;15.67;;;7.10;99.90;;;7.74;100.00;-19990.41;5010002;28;20725;-60
2022/03/29 01:37:28;;;;;;;24.87;15.50;;;7.10;99.90;;;7.99;100.00;-19998.78;5009856;28;20238;-59
2022/03/29 01:39:56;;;;;;;23.50;15.17;;;7.10;99.90;;;7.90;100.00;-19995.72;5012107;28;20695;-59
2022/03/29 01:42:24;;;;;;;22.80;15.37;;;7.10;99.90;;;7.84;100.00;-19993.81;5013801;28;20766;-59
2022/03/29 01:44:52;;;;;;;23.43;15.50;;;7.10;99.90;;;8.07;100.00;-20001.50;5014556;28;20268;-58
2022/03/29 01:47:22;;;;;;;26.13;16.87;;;7.20;99.90;;;8.22;100.00;-20006.81;5014105;28;20789;-59
2022/03/29 01:49:50;;;;;;;21.60;15.33;;;7.30;99.90;;;8.34;100.00;-20010.91;5013639;28;20265;-60
2022/03/29 01:52:19;;;;;;;24.60;15.43;;;7.40;99.90;;;8.37;100.00;-20011.94;5012677;28;20297;-59
2022/03/29 01:54:49;;;;;;;21.50;14.00;;;7.40;99.90;;;8.30;100.00;-20009.53;5012387;28;20287;-57
2022/03/29 01:57:17;;;;;;;22.43;15.27;;;7.40;99.90;;;8.13;100.00;-20003.56;5006632;28;20230;-57
2022/03/29 02:02:31;;;;;;;23.20;15.87;;;7.40;99.90;;;8.15;100.00;-20004.41;4994092;28;20299;-59
2022/03/29 02:04:59;;;;;;;20.53;14.87;;;7.40;99.90;;;8.12;100.00;-20003.38;4993942;28;20227;-59
2022/03/29 02:07:27;;;;;;;24.33;16.50;;;7.40;99.90;;;8.33;100.00;-20010.56;4993670;28;20511;-60
2022/03/29 02:09:57;;;;;;;25.43;17.00;;;7.40;99.90;;;8.43;100.00;-20014.00;4993635;28;20790;-58
2022/03/29 02:12:24;;;;;;;24.43;15.97;;;7.50;99.90;;;8.48;100.00;-20015.53;4993459;28;20658;-59
2022/03/29 02:14:56;;;;;;;23.20;15.63;;;7.60;99.90;;;8.71;100.00;-20023.38;4994003;28;20302;-57
2022/03/29 02:17:24;;;;;;;22.17;16.27;;;7.60;99.90;;;8.71;100.00;-20023.38;4994136;28;20208;-59
2022/03/29 02:19:52;;;;;;;24.07;16.07;;;7.70;99.90;;;8.80;100.00;-20026.47;4993359;28;20322;-59
2022/03/29 02:22:20;;;;;;;26.70;17.47;;;7.70;99.90;;;8.67;100.00;-20022.03;4994204;28;20223;-57
2022/03/29 02:24:48;;;;;;;25.97;17.37;;;7.80;99.90;;;8.64;100.00;-20021.16;5012823;28;20229;-59
2022/03/29 02:27:17;;;;;;;26.20;18.77;;;7.70;99.90;;;8.69;100.00;-20022.53;5012545;28;20314;-58
2022/03/29 02:29:45;;;;;;;27.80;18.10;;;7.80;99.90;;;8.78;100.00;-20025.63;5013473;28;20207;-58
2022/03/29 02:32:13;;;;;;;26.37;17.60;;;7.80;99.90;;;8.81;100.00;-20026.81;4993184;28;20710;-60
2022/03/29 02:34:42;;;;;;;26.97;19.30;;;7.80;99.90;;;8.69;100.00;-20022.72;5003492;28;20581;-59
2022/03/29 02:37:11;;;;;;;27.17;18.97;;;7.80;99.90;;;8.71;100.00;-20023.38;5013061;28;20317;-58
2022/03/29 02:39:40;;;;;;;28.97;19.20;;;7.80;99.90;;;8.78;100.00;-20025.78;5012658;28;20365;-60
2022/03/29 02:42:09;;;;;;;27.90;20.33;;;7.80;99.90;;;8.66;100.00;-20021.50;5012607;28;20268;-60
2022/03/29 02:44:38;;;;;;;25.50;19.77;;;7.80;99.90;;;8.70;100.00;-20022.88;5013126;28;20218;-58
2022/03/29 02:47:07;;;;;;;27.17;18.50;;;7.80;99.90;;;8.71;100.00;-20023.38;5013099;28;20249;-60
2022/03/29 02:49:35;;;;;;;26.03;18.80;;;7.80;99.90;;;8.76;100.00;-20025.09;5012330;28;20233;-59
2022/03/29 02:52:04;;;;;;;25.83;18.87;;;7.80;99.90;;;8.68;100.00;-20022.34;5012772;28;20236;-59
2022/03/29 02:54:32;;;;;;;25.20;18.23;;;7.80;99.90;;;8.62;100.00;-20020.31;5012492;28;20265;-59
2022/03/29 02:57:00;;;;;;;24.80;18.13;;;7.70;99.90;;;8.55;100.00;-20018.09;5012502;28;20692;-57
2022/03/29 02:59:28;;;;;;;24.47;18.73;;;7.70;99.90;;;8.72;100.00;-20023.56;5012624;28;20216;-59
2022/03/29 03:01:58;;;;;;;26.67;19.03;;;7.70;99.90;;;8.43;100.00;-20014.00;5012464;28;20316;-60
2022/03/29 03:04:26;;;;;;;26.87;20.00;;;7.70;99.90;;;8.35;100.00;-20011.25;5011896;28;20703;-59
2022/03/29 03:06:54;;;;;;;26.27;18.87;;;7.70;99.90;;;8.67;100.00;-20021.84;5012317;28;20584;-59
2022/03/29 03:09:22;;;;;;;27.67;19.30;;;7.70;99.90;;;8.71;100.00;-20023.38;5012130;28;20233;-59
2022/03/29 03:11:50;;;;;;;24.70;18.63;;;7.70;99.90;;;8.51;100.00;-20016.72;5012568;28;20412;-60
2022/03/29 03:14:18;;;;;;;25.40;18.97;;;7.70;99.90;;;8.69;100.00;-20022.72;5011624;28;20274;-57
2022/03/29 03:16:46;;;;;;;24.83;18.53;;;7.70;99.90;;;8.59;100.00;-20019.47;5011780;28;20223;-56
2022/03/29 03:19:35;;;;;;;24.17;18.17;;;7.70;99.90;;;8.59;100.00;-20019.28;5011392;28;20232;-59
2022/03/29 03:22:04;;;;;;;24.93;17.23;;;7.70;99.90;;;8.69;100.00;-20022.72;5011818;28;20233;-59
2022/03/29 03:24:32;;;;;;;22.70;15.70;;;7.70;99.90;;;8.58;100.00;-20019.13;5011796;28;20250;-59
2022/03/29 03:27:00;;;;;;;21.53;16.13;;;7.70;99.90;;;8.40;100.00;-20012.97;5011625;28;20592;-59
2022/03/29 03:29:28;;;;;;;23.20;16.17;;;7.60;99.90;;;8.45;100.00;-20014.50;5012382;28;20500;-59
2022/03/29 03:31:59;;;;;;;21.40;15.63;;;7.60;99.90;;;8.51;100.00;-20016.56;5011565;28;20321;-60
2022/03/29 03:34:27;;;;;;;21.30;16.33;;;7.60;99.90;;;8.45;100.00;-20014.69;5011715;28;20230;-59
2022/03/29 03:36:58;;;;;;;22.00;16.73;;;7.60;99.90;;;8.28;100.00;-20008.69;5011627;28;20230;-60
2022/03/29 03:39:26;;;;;;;24.80;18.13;;;7.50;99.90;;;8.41;100.00;-20013.13;5011842;28;20664;-58
2022/03/29 03:41:54;;;;;;;20.73;16.47;;;7.50;99.90;;;8.38;100.00;-20012.28;5011846;28;20977;-60
2022/03/29 03:44:23;;;;;;;26.40;17.60;;;7.50;99.90;;;8.43;100.00;-20014.00;5011894;28;20364;-60
2022/03/29 03:46:51;;;;;;;25.03;18.33;;;7.50;99.90;;;8.74;100.00;-20024.41;5011570;28;20321;-60
2022/03/29 03:49:19;;;;;;;27.60;18.90;;;7.60;99.90;;;8.68;100.00;-20022.34;5011391;28;20227;-60
2022/03/29 03:51:47;;;;;;;25.20;18.77;;;7.60;99.90;;;8.56;100.00;-20018.25;5011359;28;20227;-59
2022/03/29 03:54:16;;;;;;;25.50;17.87;;;7.60;99.90;;;8.40;100.00;-20012.78;5011188;28;20763;-59
2022/03/29 03:56:44;;;;;;;23.53;17.93;;;7.50;99.90;;;8.49;100.00;-20015.88;5011889;28;20289;-59
2022/03/29 03:59:13;;;;;;;22.30;16.53;;;7.50;99.90;;;8.35;100.00;-20011.25;5011216;28;20236;-62
2022/03/29 04:01:41;;;;;;;21.67;15.73;;;7.40;99.90;;;8.27;100.00;-20008.53;5010148;28;20656;-59
2022/03/29 04:04:09;;;;;;;20.33;14.63;;;7.40;99.90;;;8.40;100.00;-20012.97;5011072;28;20241;-59
2022/03/29 04:06:37;;;;;;;21.83;15.40;;;7.40;99.90;;;8.34;100.00;-20010.75;5011421;28;20246;-60
2022/03/29 04:09:05;;;;;;;20.33;15.37;;;7.40;99.90;;;8.24;100.00;-20007.31;5011373;28;20299;-58
2022/03/29 04:11:35;;;;;;;19.17;13.87;;;7.40;99.90;;;8.35;100.00;-20011.25;5011258;28;20546;-59
2022/03/29 04:14:04;;;;;;;20.87;15.17;;;7.40;99.90;;;8.24;100.00;-20007.31;5010918;28;20230;-58
2022/03/29 04:16:33;;;;;;;22.37;15.20;;;7.30;99.90;;;8.17;100.00;-20004.94;5010680;28;20238;-59
2022/03/29 04:19:01;;;;;;;19.13;15.10;;;7.30;99.90;;;8.22;100.00;-20006.63;5010997;28;20278;-58
2022/03/29 04:21:29;;;;;;;20.77;14.90;;;7.30;99.90;;;8.09;100.00;-20002.38;5011105;28;20257;-57
2022/03/29 04:24:00;;;;;;;21.23;14.47;;;7.20;99.90;;;8.32;100.00;-20010.06;5010999;28;20289;-58
2022/03/29 04:26:30;;;;;;;20.87;15.07;;;7.20;99.90;;;8.27;100.00;-20008.34;5011139;28;20283;-59
2022/03/29 04:29:00;;;;;;;20.63;15.23;;;7.30;99.90;;;8.32;100.00;-20010.06;5010703;28;20238;-60
2022/03/29 04:31:28;;;;;;;21.50;15.20;;;7.30;99.90;;;8.21;100.00;-20006.28;5010850;28;20925;-59
2022/03/29 04:33:58;;;;;;;21.47;15.23;;;7.20;99.90;;;8.14;100.00;-20004.06;5010820;28;20305;-58
2022/03/29 04:36:26;;;;;;;22.43;15.07;;;7.20;99.90;;;8.19;100.00;-20005.78;5010736;28;20601;-59
2022/03/29 04:38:56;;;;;;;19.87;15.60;;;7.20;99.90;;;7.95;100.00;-19997.41;5011596;28;20292;-59
2022/03/29 04:41:24;;;;;;;20.17;15.43;;;7.10;99.90;;;7.93;100.00;-19996.91;5010688;28;20226;-60
2022/03/29 04:43:57;;;;;;;21.10;15.87;;;7.10;99.90;;;8.06;100.00;-20001.16;5010432;28;20226;-61
2022/03/29 04:46:27;;;;;;;21.60;16.33;;;7.20;99.90;;;8.22;100.00;-20006.81;5010492;28;20238;-60
2022/03/29 04:48:55;;;;;;;22.53;16.07;;;7.20;99.90;;;7.87;100.00;-19994.69;5010608;28;20486;-58
2022/03/29 04:51:23;;;;;;;25.03;18.10;;;7.10;99.90;;;8.03;100.00;-20000.16;5010757;28;20304;-59
2022/03/29 04:53:51;;;;;;;22.87;17.40;;;7.10;99.90;;;7.98;100.00;-19998.44;5011161;28;20230;-59
2022/03/29 04:56:19;;;;;;;24.57;17.93;;;7.00;99.90;;;7.96;100.00;-19997.75;5010024;28;20264;-61
2022/03/29 04:58:47;;;;;;;23.03;17.47;;;7.00;99.90;;;7.87;100.00;-19994.84;5009943;28;20237;-58
2022/03/29 05:01:15;;;;;;;20.93;16.07;;;7.00;99.90;;;7.80;100.00;-19992.47;5009901;28;20317;-61
2022/03/29 05:03:45;;;;;;;24.37;17.70;;;6.90;99.90;;;7.65;100.00;-19987.34;5010045;28;20230;-58
2022/03/29 05:06:13;;;;;;;23.60;17.87;;;6.80;99.90;;;7.78;100.00;-19991.59;5009884;28;20324;-60
2022/03/29 05:08:41;;;;;;;23.30;16.83;;;6.80;99.90;;;7.86;100.00;-19994.34;5010797;28;20252;-59
2022/03/29 05:11:09;;;;;;;23.10;17.03;;;6.80;99.90;;;8.01;100.00;-19999.47;5009508;28;20258;-59
2022/03/29 05:13:37;;;;;;;23.23;17.10;;;6.90;99.90;;;7.83;100.00;-19993.47;5009432;28;20276;-60
2022/03/29 05:16:06;;;;;;;21.57;16.40;;;6.90;99.90;;;7.73;100.00;-19989.91;4998182;28;20302;-59
2022/03/29 05:18:34;;;;;;;24.50;16.57;;;6.90;99.90;;;7.82;100.00;-19993.13;4990555;28;20237;-60
2022/03/29 05:21:03;;;;;;;25.03;17.23;;;6.90;99.90;;;7.83;100.00;-19993.47;5009832;28;20210;-59
2022/03/29 05:23:31;;;;;;;21.37;16.23;;;6.90;99.90;;;7.94;100.00;-19997.06;5010494;28;20697;-59
2022/03/29 05:26:03;;;;;;;24.63;17.60;;;6.90;99.90;;;7.85;100.00;-19994.16;5010345;28;20694;-59
2022/03/29 05:28:31;;;;;;;23.47;17.80;;;6.90;99.90;;;7.91;100.00;-19996.03;5010258;28;20316;-58
2022/03/29 05:30:59;;;;;;;23.77;17.17;;;6.90;99.90;;;7.80;100.00;-19992.28;5010876;28;20236;-59
2022/03/29 05:33:27;;;;;;;25.23;18.93;;;6.90;99.90;;;7.98;100.00;-19998.59;5010628;28;20284;-59
2022/03/29 05:35:55;;;;;;;23.77;18.33;;;6.90;99.90;;;8.06;100.00;-20001.34;5010649;28;20618;-60
2022/03/29 05:38:24;;;;;;;22.73;17.73;;;7.00;99.90;;;7.98;100.00;-19998.44;5010862;28;20216;-59
2022/03/29 05:40:52;;;;;;;27.43;19.37;;;7.00;99.90;;;7.97;100.00;-19998.25;5010545;28;20318;-61
2022/03/29 05:43:20;;;;;;;28.57;20.00;;;7.00;99.90;;;7.99;100.00;-19998.94;5010219;28;20226;-60
2022/03/29 05:48:51;;;;;;;26.60;19.67;;;7.00;99.90;;;7.89;100.00;-19995.34;5010472;28;20256;-59
2022/03/29 05:48:52;;;;;;;27.03;18.80;;;6.90;99.90;;;7.78;100.00;-19991.78;5010401;28;20321;-59
2022/03/29 05:51:20;;;;;;;28.57;19.53;;;6.90;99.90;;;7.88;100.00;-19995.03;5010413;28;20332;-59
2022/03/29 05:53:51;;;;;;;25.00;19.10;;;7.00;99.90;;;7.97;100.00;-19998.09;5011041;28;20203;-59
2022/03/29 05:56:19;;;;;;;25.23;19.17;;;7.00;99.90;;;8.00;100.00;-19999.13;5010124;28;20237;-57
2022/03/29 05:58:47;;;;;;;30.10;20.47;;;7.00;99.90;;;8.06;100.00;-20001.16;5010200;28;20234;-59
2022/03/29 06:01:15;;;;;;;26.37;19.80;;;7.00;99.90;;;8.06;100.00;-20001.16;5010278;28;20642;-59
2022/03/29 06:03:43;;;;;;;28.27;20.80;;;7.10;99.90;;;8.21;100.00;-20006.28;5010517;28;20257;-59
2022/03/29 06:06:13;;;;;;;26.53;20.43;;;7.10;99.90;;;8.22;100.00;-20006.81;5010071;28;20227;-58
2022/03/29 06:08:41;;;;;;;26.50;20.43;;;7.10;99.90;;;8.35;100.00;-20011.09;5010444;28;20352;-58
2022/03/29 06:11:11;;;;;;;28.37;20.73;;;7.20;99.90;;;8.14;100.00;-20003.91;5009822;28;20235;-58
2022/03/29 06:13:38;;;;;;;28.83;20.63;;;7.10;99.90;;;8.13;100.00;-20003.72;5009739;28;20662;-58
2022/03/29 06:16:06;;;;;;;31.10;21.53;;;7.20;99.90;;;8.01;100.00;-19999.47;5009146;28;20582;-59
2022/03/29 06:18:35;;;;;;;29.23;20.53;;;7.10;99.90;;;8.30;100.00;-20009.53;5009898;28;20233;-58
2022/03/29 06:21:04;;;;;;;27.53;19.03;;;7.10;99.90;;;8.22;100.00;-20006.63;5010238;28;20206;-59
2022/03/29 06:23:32;;;;;;;28.90;19.80;;;7.10;99.90;;;8.09;100.00;-20002.38;5010644;28;20212;-59
2022/03/29 06:26:00;;;;;;;28.80;20.70;;;7.10;99.90;;;8.05;100.00;-20000.84;5012288;28;20321;-60
2022/03/29 06:28:30;;;;;;;25.43;19.60;;;7.10;99.90;;;7.96;100.00;-19997.75;5013232;28;20272;-60
2022/03/29 06:30:58;;;;;;;26.10;19.60;;;7.00;99.90;;;7.97;100.00;-19998.09;5013804;28;20659;-59
2022/03/29 06:33:27;;;;;;;25.23;19.20;;;7.00;99.90;;;8.07;100.00;-20001.50;5013515;28;20229;-58
2022/03/29 06:35:55;;;;;;;25.97;17.90;;;7.00;99.90;;;8.09;100.00;-20002.38;5014549;28;20580;-58
2022/03/29 06:38:23;;;;;;;25.93;18.37;;;7.10;99.90;;;8.04;100.00;-20000.47;5013515;28;20576;-59
2022/03/29 06:40:53;;;;;;;25.27;18.23;;;7.10;99.90;;;8.17;100.00;-20004.94;5013362;28;20230;-58
2022/03/29 06:43:21;;;;;;;26.77;19.07;;;7.10;99.90;;;8.09;100.00;-20002.19;5012895;28;20714;-56
2022/03/29 06:45:50;;;;;;;25.13;18.23;;;7.20;99.90;;;8.34;100.00;-20010.91;5013701;28;20229;-58
2022/03/29 06:48:18;;;;;;;22.90;17.13;;;7.20;99.90;;;8.32;100.00;-20010.06;5012904;28;20225;-59
2022/03/29 06:50:46;;;;;;;26.47;17.80;;;7.30;99.90;;;8.35;100.00;-20011.09;5013997;28;20229;-59
2022/03/29 06:53:14;;;;;;;23.63;17.37;;;7.20;99.90;;;8.17;100.00;-20005.09;5013103;28;20321;-59
2022/03/29 06:55:42;;;;;;;26.17;18.20;;;7.20;99.90;;;8.14;100.00;-20004.06;5013195;28;20555;-58
2022/03/29 06:58:10;;;;;;;24.27;17.60;;;7.20;99.90;;;8.18;100.00;-20005.28;5013027;28;20326;-59
2022/03/29 07:00:43;;;;;;;23.77;17.43;;;7.20;99.90;;;8.55;100.00;-20017.91;5013091;28;20276;-60
2022/03/29 07:03:13;;;;;;;24.63;17.67;;;7.30;99.90;;;8.42;100.00;-20013.66;5012769;28;20805;-59
2022/03/29 07:05:42;;;;;;;23.77;16.20;;;7.40;99.90;;;8.59;100.00;-20019.47;5013387;28;20650;-59
2022/03/29 07:08:11;;;;;;;22.37;16.37;;;7.40;99.90;;;8.53;100.00;-20017.41;5012484;28;20328;-57
2022/03/29 07:13:22;;;;;;;23.70;17.10;;;7.50;99.90;;;8.50;100.00;-20016.22;5023277;28;20225;-59
2022/03/29 07:15:50;;;;;;;21.53;15.57;;;7.40;99.90;;;8.55;99.50;-20017.91;5020919;28;20206;-59
2022/03/29 07:18:20;;;;;;;24.97;17.07;;;7.50;99.90;;;8.77;97.76;-20025.25;4976200;28;20222;-61
2022/03/29 07:20:49;;;;;;;22.67;16.33;;;7.60;99.90;;;8.72;97.89;-20023.72;4994844;28;20219;-59
2022/03/29 07:23:17;;;;;;;23.40;16.00;;;7.60;99.90;;;8.87;97.25;-20028.84;5012022;28;20236;-59
2022/03/29 07:25:45;;;;;;;24.33;17.10;;;7.70;99.90;;;8.67;97.47;-20021.84;5006369;28;20693;-59
2022/03/29 07:28:13;;;;;;;25.77;17.77;;;7.60;99.90;;;8.70;96.89;-20023.03;4992657;28;20237;-60
2022/03/29 07:30:43;;;;;;;24.07;17.83;;;7.60;99.90;;;8.83;96.82;-20027.31;4992142;28;20230;-58
2022/03/29 07:33:11;;;;;;;25.53;17.87;;;7.70;99.90;;;8.77;95.76;-20025.44;4992258;28;20646;-60
2022/03/29 07:35:41;;;;;;;25.20;17.67;;;7.60;99.90;;;8.75;96.78;-20024.75;5007914;28;20313;-61
2022/03/29 07:38:09;;;;;;;26.37;18.07;;;7.70;99.90;;;8.65;96.84;-20021.34;5011735;28;20317;-60
2022/03/29 07:40:39;;;;;;;25.93;17.67;;;7.60;99.90;;;8.80;96.60;-20026.28;5012381;28;20238;-59
2022/03/29 07:43:10;;;;;;;24.63;17.93;;;7.60;99.90;;;8.73;98.12;-20024.06;5012066;28;20718;-59
2022/03/29 07:45:39;;;;;;;27.13;18.47;;;7.70;99.90;;;8.72;98.74;-20023.72;5011465;28;20232;-62
2022/03/29 07:48:07;;;;;;;29.10;18.83;;;7.70;99.90;;;9.05;96.64;-20035.00;5011106;28;20575;-60
2022/03/29 07:50:56;;;;;;;29.47;18.67;;;7.80;99.90;;;8.89;95.45;-20029.38;5009621;28;20226;-60
2022/03/29 07:53:25;;;;;;;28.20;19.70;;;7.80;99.90;;;9.20;93.78;-20040.13;4991666;28;20330;-59
2022/03/29 07:55:54;;;;;;;25.33;18.53;;;7.90;99.90;;;9.20;93.69;-20040.13;4991959;28;20239;-59
2022/03/29 07:58:23;;;;;;;31.47;20.03;;;8.00;99.90;;;9.05;93.71;-20034.84;4992244;28;20204;-60
2022/03/29 08:00:51;;;;;;;26.57;18.67;;;7.90;99.90;;;9.19;93.35;-20039.78;4991698;28;20266;-60
2022/03/29 08:03:21;;;;;;;25.67;18.30;;;8.00;99.90;;;9.14;93.71;-20038.06;4991783;28;20572;-59
2022/03/29 08:05:51;;;;;;;26.67;18.93;;;8.00;99.90;;;9.22;93.46;-20040.81;4991386;28;20251;-60
2022/03/29 08:08:20;;;;;;;27.47;19.03;;;8.00;99.90;;;9.23;92.94;-20040.97;4991684;28;20258;-61
2022/03/29 08:10:50;;;;;;;29.70;19.60;;;8.10;99.90;;;9.27;93.30;-20042.34;4991183;28;20199;-60
2022/03/29 08:13:19;;;;;;;24.93;18.63;;;8.10;99.90;;;9.48;92.92;-20049.53;4992050;28;20297;-60
2022/03/29 08:15:50;;;;;;;24.90;17.97;;;8.30;99.90;;;9.59;92.43;-20053.44;4991309;28;20227;-59
2022/03/29 08:18:19;;;;;;;26.43;17.83;;;8.30;99.90;;;9.94;91.01;-20065.25;4991201;28;20237;-56
2022/03/29 08:20:47;;;;;;;22.30;17.23;;;8.40;99.90;;;10.25;88.93;-20075.84;4991527;28;20314;-59
2022/03/29 08:23:15;;;;;;;22.47;17.13;;;8.70;99.90;;;10.53;84.92;-20085.41;4991464;28;20227;-57
2022/03/29 08:25:45;;;;;;;26.57;17.57;;;8.90;99.90;;;10.50;84.67;-20084.22;4991113;28;20204;-58
2022/03/29 08:28:15;;;;;;;24.93;17.27;;;9.10;99.90;;;10.50;84.54;-20084.22;4991375;28;20314;-58
2022/03/29 08:30:44;;;;;;;25.10;17.97;;;9.10;99.90;;;10.66;82.84;-20089.84;4991120;28;20238;-60
2022/03/29 08:33:12;;;;;;;23.93;17.60;;;9.30;99.90;;;10.50;84.34;-20084.22;4990871;28;20795;-59
2022/03/29 08:35:44;;;;;;;22.50;16.93;;;9.30;99.90;;;10.87;80.81;-20096.84;4991360;28;20322;-60
2022/03/29 08:38:12;;;;;;;22.43;16.47;;;9.40;99.90;;;10.64;79.64;-20089.16;4990986;28;20315;-59
2022/03/29 08:40:59;;;;;;;24.13;16.03;;;9.40;99.90;;;10.73;80.18;-20092.06;4991070;28;20223;-59
2022/03/29 08:43:30;;;;;;;22.57;17.00;;;9.40;99.90;;;10.61;80.76;-20087.97;4991159;28;20223;-58
2022/03/29 08:46:00;;;;;;;24.10;17.43;;;9.20;99.90;;;10.69;80.01;-20090.88;4990933;28;20227;-59
2022/03/29 08:48:31;;;;;;;22.73;17.10;;;9.30;99.90;;;10.59;80.81;-20087.44;4990332;28;20231;-54
2022/03/29 08:51:01;;;;;;;23.07;16.87;;;9.30;99.90;;;10.64;80.76;-20089.16;4991303;28;20314;-58
2022/03/29 08:53:49;;;;;;;23.30;16.70;;;9.40;99.90;;;10.91;80.09;-20098.22;4990545;28;20223;-60
2022/03/29 08:56:19;;;;;;;25.03;17.57;;;9.40;99.90;;;10.70;80.77;-20091.03;4990872;28;20234;-59
2022/03/29 08:58:48;;;;;;;25.40;17.40;;;9.40;99.90;;;10.86;80.22;-20096.50;4990592;28;20210;-59
2022/03/29 09:01:19;;;;;;;23.23;16.63;;;9.40;99.90;;;10.69;79.75;-20090.88;4991402;28;20221;-59
2022/03/29 09:04:04;;;;;;;24.27;16.33;;;9.40;99.90;;;11.01;79.36;-20101.63;4990654;28;20242;-58
2022/03/29 09:06:32;;;;;;;21.73;16.23;;;9.50;99.90;;;10.99;77.54;-20100.94;4990612;28;20309;-59
2022/03/29 09:09:01;;;;;;;22.43;16.50;;;9.60;99.90;;;11.11;78.00;-20105.03;4990556;28;20278;-62
2022/03/29 09:11:42;;;;;;;21.23;16.30;;;9.70;99.90;;;11.06;77.86;-20103.31;4992956;28;20719;-60
2022/03/29 09:14:10;;;;;;;22.93;16.40;;;9.60;99.90;;;11.21;77.53;-20108.28;4990301;28;20662;-60
2022/03/29 09:16:38;;;;;;;22.67;16.77;;;9.70;99.90;;;11.07;78.46;-20103.69;4991354;28;20214;-61
2022/03/29 09:19:09;;;;;;;21.30;16.67;;;9.70;99.90;;;11.36;76.29;-20113.59;4991049;28;20245;-59
2022/03/29 09:21:42;;;;;;;24.03;17.07;;;9.80;99.90;;;11.53;75.50;-20119.38;4990291;28;20215;-56
2022/03/29 09:24:14;;;;;;;22.27;15.73;;;9.90;99.90;;;11.56;74.91;-20120.25;4990481;28;20258;-58
2022/03/29 09:26:46;;;;;;;23.30;16.13;;;10.00;99.90;;;11.48;76.03;-20117.50;4990341;28;20306;-57
2022/03/29 09:29:20;;;;;;;22.93;17.00;;;10.10;99.90;;;11.84;74.20;-20129.97;4990376;28;20310;-58
2022/03/29 09:32:06;;;;;;;22.63;16.67;;;10.20;99.90;;;12.12;72.70;-20139.53;4990570;28;20635;-58
2022/03/29 09:34:35;;;;;;;24.53;17.50;;;10.50;99.90;;;12.22;70.70;-20142.78;4991140;28;20275;-59
2022/03/29 09:37:05;;;;;;;22.57;17.47;;;10.50;99.90;;;12.00;71.86;-20135.44;4990396;28;20322;-59
2022/03/29 09:39:39;;;;;;;28.70;16.97;;;10.40;99.90;;;11.97;71.52;-20134.41;4990229;28;20770;-60
2022/03/29 09:42:12;;;;;;;24.00;17.43;;;10.60;99.90;;;11.89;72.92;-20131.53;4990241;28;20227;-60
2022/03/29 09:44:44;;;;;;;24.60;17.00;;;10.40;99.90;;;12.27;70.29;-20144.50;4990119;28;20229;-59
2022/03/29 09:47:14;;;;;;;24.13;17.33;;;10.50;99.90;;;12.02;72.01;-20136.13;4990653;28;20309;-61
2022/03/29 09:49:52;;;;;;;24.93;18.50;;;10.40;99.90;;;12.48;69.72;-20151.50;4990119;28;20184;-61
2022/03/29 09:52:24;;;;;;;24.80;17.87;;;10.60;99.90;;;12.54;69.64;-20153.53;4990852;28;20222;-60
2022/03/29 09:55:13;;;;;;;20.70;16.20;;;10.70;99.90;;;12.77;69.69;-20161.41;4990323;28;20254;-61
2022/03/29 09:57:47;;;;;;;24.90;17.67;;;11.00;99.90;;;13.03;68.09;-20170.28;5000213;28;20233;-57
2022/03/29 10:00:18;;;;;;;22.13;16.73;;;11.20;99.90;;;13.26;64.98;-20178.31;5008705;28;20250;-59
2022/03/29 10:02:47;;;;;;;24.17;17.90;;;11.40;99.90;;;12.89;66.28;-20165.50;5012407;28;20258;-59
2022/03/29 10:05:19;;;;;;;24.07;16.97;;;11.20;99.90;;;12.99;66.56;-20168.91;5012654;28;20231;-60
2022/03/29 10:09:25;;;;;;;22.70;16.50;;;11.20;99.90;;;12.80;66.88;-20162.41;5013789;28;20233;-60
2022/03/29 10:10:46;;;;;;;22.50;17.30;;;11.20;99.90;;;12.85;66.49;-20164.31;5013845;28;20233;-60
2022/03/29 10:13:20;;;;;;;21.73;16.77;;;11.20;99.90;;;12.69;67.95;-20158.66;5013921;28;20198;-59
2022/03/29 10:15:48;;;;;;;25.30;17.13;;;11.10;99.90;;;12.85;66.89;-20164.13;5013677;28;20712;-60
2022/03/29 10:18:18;;;;;;;23.93;17.60;;;11.20;99.90;;;13.19;66.60;-20175.91;5005808;28;20222;-61
2022/03/29 10:20:46;;;;;;;22.17;16.97;;;11.20;99.90;;;13.65;65.34;-20191.28;4994197;28;20269;-62
2022/03/29 10:23:18;;;;;;;21.53;16.20;;;11.50;99.90;;;13.56;64.07;-20188.19;4994193;28;20254;-61
2022/03/29 10:25:46;;;;;;;23.23;17.70;;;11.70;99.90;;;13.60;62.93;-20189.72;4994047;28;20496;-60